Plum, Texas
Current Conditions -  °F | °C
As of 8:35 PM on Saturday 22 Nov 2014 (Local Time) from K3T5 Reporting Station
Thunderstorm Thunderstorm  
Wind Chill: 69°   Ceiling: 700
Heat Index: 69°   Visibility: 10mi
Dew Point: 68°   Wind: 10mph
Humidity: 96%   Direction: 150°SSE
Pressure: 29.72"   Gusts: NA
Location:  29.93°N, 96.97°W
Report Text: K3T5 230235Z AUTO 15009KT 10SM VCTS BKN007 BKN018 21/20 A2972 RMK AO2 LTG DSNT N SE AND NW T02070201
Loading
Personal Weather Stations






























Interactive Weather Map New forecast layout! Learn more

10-Day Weather Forecast

Advertisements
Track Severe Weather on mobile